sensor_id;sensor_type;location;lat;lon;timestamp;P1;durP1;ratioP1;P2;durP2;ratioP2
22648;SDS011;11491;41.942;24.220;2022-07-23T00:01:09;10.77;;;7.45;;
22648;SDS011;11491;41.942;24.220;2022-07-23T00:03:37;11.30;;;7.40;;
22648;SDS011;11491;41.942;24.220;2022-07-23T00:06:04;10.43;;;7.53;;
22648;SDS011;11491;41.942;24.220;2022-07-23T00:08:31;9.95;;;7.57;;
22648;SDS011;11491;41.942;24.220;2022-07-23T00:10:58;10.13;;;7.57;;
22648;SDS011;11491;41.942;24.220;2022-07-23T00:13:25;11.48;;;7.90;;
22648;SDS011;11491;41.942;24.220;2022-07-23T00:15:52;10.60;;;7.78;;
22648;SDS011;11491;41.942;24.220;2022-07-23T00:18:19;12.90;;;7.75;;
22648;SDS011;11491;41.942;24.220;2022-07-23T00:20:47;9.88;;;7.80;;
22648;SDS011;11491;41.942;24.220;2022-07-23T00:23:14;8.38;;;6.82;;
22648;SDS011;11491;41.942;24.220;2022-07-23T00:25:41;10.25;;;8.23;;
22648;SDS011;11491;41.942;24.220;2022-07-23T00:28:08;11.85;;;7.88;;
22648;SDS011;11491;41.942;24.220;2022-07-23T00:30:34;9.02;;;7.10;;
22648;SDS011;11491;41.942;24.220;2022-07-23T00:33:02;10.02;;;7.53;;
22648;SDS011;11491;41.942;24.220;2022-07-23T00:35:31;12.57;;;7.55;;
22648;SDS011;11491;41.942;24.220;2022-07-23T00:38:03;8.25;;;6.80;;
22648;SDS011;11491;41.942;24.220;2022-07-23T00:40:31;10.43;;;7.07;;
22648;SDS011;11491;41.942;24.220;2022-07-23T00:42:58;9.18;;;7.25;;
22648;SDS011;11491;41.942;24.220;2022-07-23T00:45:25;15.63;;;7.82;;
22648;SDS011;11491;41.942;24.220;2022-07-23T00:47:53;10.15;;;7.75;;
22648;SDS011;11491;41.942;24.220;2022-07-23T00:50:19;9.73;;;6.78;;
22648;SDS011;11491;41.942;24.220;2022-07-23T00:52:46;13.40;;;7.43;;
22648;SDS011;11491;41.942;24.220;2022-07-23T00:55:14;11.93;;;7.63;;
22648;SDS011;11491;41.942;24.220;2022-07-23T00:57:41;8.77;;;6.85;;
22648;SDS011;11491;41.942;24.220;2022-07-23T01:00:10;11.27;;;7.13;;
22648;SDS011;11491;41.942;24.220;2022-07-23T01:02:38;7.28;;;6.32;;
22648;SDS011;11491;41.942;24.220;2022-07-23T01:05:06;9.25;;;6.95;;
22648;SDS011;11491;41.942;24.220;2022-07-23T01:07:34;7.80;;;6.90;;
22648;SDS011;11491;41.942;24.220;2022-07-23T01:10:01;9.65;;;7.25;;
22648;SDS011;11491;41.942;24.220;2022-07-23T01:12:30;9.93;;;7.43;;
22648;SDS011;11491;41.942;24.220;2022-07-23T01:14:57;12.65;;;7.10;;
22648;SDS011;11491;41.942;24.220;2022-07-23T01:17:25;11.13;;;7.70;;
22648;SDS011;11491;41.942;24.220;2022-07-23T01:19:52;8.57;;;7.00;;
22648;SDS011;11491;41.942;24.220;2022-07-23T01:22:19;10.30;;;7.32;;
22648;SDS011;11491;41.942;24.220;2022-07-23T01:24:48;8.75;;;7.35;;
22648;SDS011;11491;41.942;24.220;2022-07-23T01:27:15;9.15;;;7.45;;
22648;SDS011;11491;41.942;24.220;2022-07-23T01:29:42;11.00;;;7.70;;
22648;SDS011;11491;41.942;24.220;2022-07-23T01:32:09;11.27;;;7.60;;
22648;SDS011;11491;41.942;24.220;2022-07-23T01:34:36;9.35;;;7.25;;
22648;SDS011;11491;41.942;24.220;2022-07-23T01:37:03;8.30;;;7.32;;
22648;SDS011;11491;41.942;24.220;2022-07-23T01:39:29;11.32;;;7.53;;
22648;SDS011;11491;41.942;24.220;2022-07-23T01:41:58;9.85;;;6.78;;
22648;SDS011;11491;41.942;24.220;2022-07-23T01:44:24;8.98;;;6.88;;
22648;SDS011;11491;41.942;24.220;2022-07-23T01:46:51;9.65;;;6.82;;
22648;SDS011;11491;41.942;24.220;2022-07-23T01:49:18;10.05;;;7.30;;
22648;SDS011;11491;41.942;24.220;2022-07-23T01:51:45;15.23;;;7.38;;
22648;SDS011;11491;41.942;24.220;2022-07-23T01:54:25;12.65;;;8.13;;
22648;SDS011;11491;41.942;24.220;2022-07-23T01:56:52;9.82;;;7.40;;
22648;SDS011;11491;41.942;24.220;2022-07-23T01:59:20;10.57;;;7.35;;
22648;SDS011;11491;41.942;24.220;2022-07-23T02:01:47;12.57;;;7.45;;
22648;SDS011;11491;41.942;24.220;2022-07-23T02:04:15;10.93;;;7.53;;
22648;SDS011;11491;41.942;24.220;2022-07-23T02:06:42;10.15;;;7.03;;
22648;SDS011;11491;41.942;24.220;2022-07-23T02:09:09;8.50;;;6.65;;
22648;SDS011;11491;41.942;24.220;2022-07-23T02:11:36;10.27;;;6.95;;
22648;SDS011;11491;41.942;24.220;2022-07-23T02:14:03;10.85;;;6.80;;
22648;SDS011;11491;41.942;24.220;2022-07-23T02:16:31;10.73;;;6.97;;
22648;SDS011;11491;41.942;24.220;2022-07-23T02:18:58;11.73;;;7.50;;
22648;SDS011;11491;41.942;24.220;2022-07-23T02:21:25;9.70;;;7.40;;
22648;SDS011;11491;41.942;24.220;2022-07-23T02:23:52;13.77;;;7.25;;
22648;SDS011;11491;41.942;24.220;2022-07-23T02:26:19;7.88;;;6.50;;
22648;SDS011;11491;41.942;24.220;2022-07-23T02:28:45;11.35;;;7.28;;
22648;SDS011;11491;41.942;24.220;2022-07-23T02:31:12;8.80;;;7.38;;
22648;SDS011;11491;41.942;24.220;2022-07-23T02:33:41;9.45;;;7.45;;
22648;SDS011;11491;41.942;24.220;2022-07-23T02:36:08;11.55;;;6.68;;
22648;SDS011;11491;41.942;24.220;2022-07-23T02:38:35;9.02;;;6.88;;
22648;SDS011;11491;41.942;24.220;2022-07-23T02:41:01;8.60;;;7.28;;
22648;SDS011;11491;41.942;24.220;2022-07-23T02:43:28;11.88;;;7.38;;
22648;SDS011;11491;41.942;24.220;2022-07-23T02:45:55;8.77;;;7.75;;
22648;SDS011;11491;41.942;24.220;2022-07-23T02:48:22;12.15;;;7.47;;
22648;SDS011;11491;41.942;24.220;2022-07-23T02:50:50;8.70;;;7.07;;
22648;SDS011;11491;41.942;24.220;2022-07-23T02:53:17;8.82;;;6.68;;
22648;SDS011;11491;41.942;24.220;2022-07-23T02:55:44;9.88;;;7.50;;
22648;SDS011;11491;41.942;24.220;2022-07-23T02:58:11;9.80;;;7.68;;
22648;SDS011;11491;41.942;24.220;2022-07-23T03:00:38;10.52;;;7.78;;
22648;SDS011;11491;41.942;24.220;2022-07-23T03:03:04;11.55;;;7.68;;
22648;SDS011;11491;41.942;24.220;2022-07-23T03:05:31;9.07;;;7.82;;
22648;SDS011;11491;41.942;24.220;2022-07-23T03:08:00;10.57;;;7.70;;
22648;SDS011;11491;41.942;24.220;2022-07-23T03:10:27;11.48;;;7.88;;
22648;SDS011;11491;41.942;24.220;2022-07-23T03:12:53;10.45;;;7.53;;
22648;SDS011;11491;41.942;24.220;2022-07-23T03:15:20;9.68;;;7.80;;
22648;SDS011;11491;41.942;24.220;2022-07-23T03:17:47;11.32;;;8.38;;
22648;SDS011;11491;41.942;24.220;2022-07-23T03:20:14;10.52;;;7.95;;
22648;SDS011;11491;41.942;24.220;2022-07-23T03:22:41;9.15;;;7.72;;
22648;SDS011;11491;41.942;24.220;2022-07-23T03:25:10;8.80;;;7.72;;
22648;SDS011;11491;41.942;24.220;2022-07-23T03:27:36;7.93;;;6.97;;
22648;SDS011;11491;41.942;24.220;2022-07-23T03:30:04;11.02;;;7.65;;
22648;SDS011;11491;41.942;24.220;2022-07-23T03:32:31;11.25;;;7.97;;
22648;SDS011;11491;41.942;24.220;2022-07-23T03:34:58;11.15;;;7.85;;
22648;SDS011;11491;41.942;24.220;2022-07-23T03:37:25;10.00;;;7.90;;
22648;SDS011;11491;41.942;24.220;2022-07-23T03:39:52;11.93;;;7.60;;
22648;SDS011;11491;41.942;24.220;2022-07-23T03:42:20;9.32;;;7.13;;
22648;SDS011;11491;41.942;24.220;2022-07-23T03:44:47;11.95;;;7.35;;
22648;SDS011;11491;41.942;24.220;2022-07-23T03:47:14;12.20;;;8.73;;
22648;SDS011;11491;41.942;24.220;2022-07-23T03:49:42;13.68;;;9.52;;
22648;SDS011;11491;41.942;24.220;2022-07-23T03:52:09;11.18;;;8.40;;
22648;SDS011;11491;41.942;24.220;2022-07-23T03:54:36;12.13;;;8.20;;
22648;SDS011;11491;41.942;24.220;2022-07-23T03:57:02;14.15;;;8.68;;
22648;SDS011;11491;41.942;24.220;2022-07-23T03:59:31;10.10;;;7.90;;
22648;SDS011;11491;41.942;24.220;2022-07-23T04:01:58;11.05;;;8.38;;
22648;SDS011;11491;41.942;24.220;2022-07-23T04:04:24;13.88;;;8.88;;
22648;SDS011;11491;41.942;24.220;2022-07-23T04:06:51;12.00;;;8.80;;
22648;SDS011;11491;41.942;24.220;2022-07-23T04:09:18;12.85;;;8.50;;
22648;SDS011;11491;41.942;24.220;2022-07-23T04:11:45;10.90;;;8.68;;
22648;SDS011;11491;41.942;24.220;2022-07-23T04:14:12;13.98;;;9.80;;
22648;SDS011;11491;41.942;24.220;2022-07-23T04:16:40;11.70;;;9.15;;
22648;SDS011;11491;41.942;24.220;2022-07-23T04:19:06;13.10;;;9.80;;
22648;SDS011;11491;41.942;24.220;2022-07-23T04:21:33;13.75;;;9.77;;
22648;SDS011;11491;41.942;24.220;2022-07-23T04:24:00;24.52;;;20.02;;
22648;SDS011;11491;41.942;24.220;2022-07-23T04:26:27;30.98;;;26.30;;
22648;SDS011;11491;41.942;24.220;2022-07-23T04:28:54;32.15;;;25.30;;
22648;SDS011;11491;41.942;24.220;2022-07-23T04:31:20;31.02;;;24.40;;
22648;SDS011;11491;41.942;24.220;2022-07-23T04:33:49;21.38;;;17.00;;
22648;SDS011;11491;41.942;24.220;2022-07-23T04:36:16;20.02;;;12.82;;
22648;SDS011;11491;41.942;24.220;2022-07-23T04:38:42;18.20;;;13.48;;
22648;SDS011;11491;41.942;24.220;2022-07-23T04:41:09;22.38;;;15.63;;
22648;SDS011;11491;41.942;24.220;2022-07-23T04:43:36;20.10;;;16.40;;
22648;SDS011;11491;41.942;24.220;2022-07-23T04:46:03;29.55;;;16.05;;
22648;SDS011;11491;41.942;24.220;2022-07-23T04:48:31;20.20;;;11.02;;
22648;SDS011;11491;41.942;24.220;2022-07-23T04:50:59;19.42;;;12.18;;
22648;SDS011;11491;41.942;24.220;2022-07-23T04:53:26;21.65;;;12.07;;
22648;SDS011;11491;41.942;24.220;2022-07-23T04:55:52;24.65;;;12.27;;
22648;SDS011;11491;41.942;24.220;2022-07-23T04:58:20;17.88;;;13.25;;
22648;SDS011;11491;41.942;24.220;2022-07-23T05:00:47;18.67;;;12.40;;
22648;SDS011;11491;41.942;24.220;2022-07-23T05:03:14;16.85;;;11.48;;
22648;SDS011;11491;41.942;24.220;2022-07-23T05:05:41;18.55;;;10.85;;
22648;SDS011;11491;41.942;24.220;2022-07-23T05:08:10;13.73;;;9.38;;
22648;SDS011;11491;41.942;24.220;2022-07-23T05:10:37;11.63;;;7.97;;
22648;SDS011;11491;41.942;24.220;2022-07-23T05:13:04;12.35;;;8.10;;
22648;SDS011;11491;41.942;24.220;2022-07-23T05:15:31;10.05;;;7.55;;
22648;SDS011;11491;41.942;24.220;2022-07-23T05:17:57;13.90;;;8.25;;
22648;SDS011;11491;41.942;24.220;2022-07-23T05:20:24;14.20;;;7.50;;
22648;SDS011;11491;41.942;24.220;2022-07-23T05:22:51;10.63;;;6.95;;
22648;SDS011;11491;41.942;24.220;2022-07-23T05:25:21;13.38;;;7.80;;
22648;SDS011;11491;41.942;24.220;2022-07-23T05:27:48;15.27;;;8.18;;
22648;SDS011;11491;41.942;24.220;2022-07-23T05:30:15;8.93;;;8.02;;
22648;SDS011;11491;41.942;24.220;2022-07-23T05:32:44;10.00;;;7.80;;
22648;SDS011;11491;41.942;24.220;2022-07-23T05:35:10;10.05;;;7.80;;
22648;SDS011;11491;41.942;24.220;2022-07-23T05:37:38;19.23;;;8.30;;
22648;SDS011;11491;41.942;24.220;2022-07-23T05:40:05;14.65;;;11.25;;
22648;SDS011;11491;41.942;24.220;2022-07-23T05:42:35;19.33;;;15.93;;
22648;SDS011;11491;41.942;24.220;2022-07-23T05:45:02;9.98;;;7.60;;
22648;SDS011;11491;41.942;24.220;2022-07-23T05:47:39;10.57;;;6.97;;
22648;SDS011;11491;41.942;24.220;2022-07-23T06:31:20;13.77;;;8.15;;
22648;SDS011;11491;41.942;24.220;2022-07-23T06:33:54;14.82;;;8.30;;
22648;SDS011;11491;41.942;24.220;2022-07-23T06:36:26;19.17;;;8.38;;
22648;SDS011;11491;41.942;24.220;2022-07-23T06:38:55;14.07;;;8.13;;
22648;SDS011;11491;41.942;24.220;2022-07-23T06:41:25;16.38;;;9.15;;
22648;SDS011;11491;41.942;24.220;2022-07-23T06:43:52;14.02;;;9.32;;
22648;SDS011;11491;41.942;24.220;2022-07-23T06:46:21;15.45;;;8.98;;
22648;SDS011;11491;41.942;24.220;2022-07-23T06:48:48;15.10;;;7.35;;
22648;SDS011;11491;41.942;24.220;2022-07-23T06:51:15;12.40;;;8.00;;
22648;SDS011;11491;41.942;24.220;2022-07-23T06:53:42;11.38;;;7.50;;
22648;SDS011;11491;41.942;24.220;2022-07-23T06:56:09;9.55;;;6.72;;
22648;SDS011;11491;41.942;24.220;2022-07-23T06:58:36;15.55;;;7.55;;
22648;SDS011;11491;41.942;24.220;2022-07-23T07:01:03;15.27;;;9.07;;
22648;SDS011;11491;41.942;24.220;2022-07-23T07:03:31;15.55;;;8.80;;
22648;SDS011;11491;41.942;24.220;2022-07-23T07:05:58;14.25;;;7.32;;
22648;SDS011;11491;41.942;24.220;2022-07-23T07:08:25;13.95;;;7.32;;
22648;SDS011;11491;41.942;24.220;2022-07-23T07:10:52;11.57;;;6.90;;
22648;SDS011;11491;41.942;24.220;2022-07-23T07:13:18;11.80;;;7.85;;
22648;SDS011;11491;41.942;24.220;2022-07-23T07:15:45;14.05;;;7.65;;
22648;SDS011;11491;41.942;24.220;2022-07-23T07:18:12;14.63;;;7.68;;
22648;SDS011;11491;41.942;24.220;2022-07-23T07:20:40;11.70;;;6.97;;
22648;SDS011;11491;41.942;24.220;2022-07-23T07:23:07;9.90;;;5.07;;
22648;SDS011;11491;41.942;24.220;2022-07-23T07:25:34;9.57;;;4.85;;
22648;SDS011;11491;41.942;24.220;2022-07-23T07:28:01;8.57;;;5.60;;
22648;SDS011;11491;41.942;24.220;2022-07-23T07:30:28;9.98;;;5.10;;
22648;SDS011;11491;41.942;24.220;2022-07-23T07:32:55;13.98;;;4.97;;
22648;SDS011;11491;41.942;24.220;2022-07-23T07:35:22;11.68;;;5.20;;
22648;SDS011;11491;41.942;24.220;2022-07-23T07:37:50;7.35;;;5.13;;
22648;SDS011;11491;41.942;24.220;2022-07-23T07:40:17;11.27;;;5.00;;
22648;SDS011;11491;41.942;24.220;2022-07-23T07:42:44;7.07;;;4.93;;
22648;SDS011;11491;41.942;24.220;2022-07-23T07:45:11;11.38;;;5.22;;
22648;SDS011;11491;41.942;24.220;2022-07-23T07:47:38;9.18;;;5.15;;
22648;SDS011;11491;41.942;24.220;2022-07-23T07:50:05;8.32;;;4.80;;
22648;SDS011;11491;41.942;24.220;2022-07-23T07:52:33;11.32;;;5.15;;
22648;SDS011;11491;41.942;24.220;2022-07-23T07:55:02;7.20;;;4.90;;
22648;SDS011;11491;41.942;24.220;2022-07-23T07:57:30;8.02;;;5.03;;
22648;SDS011;11491;41.942;24.220;2022-07-23T07:59:57;8.23;;;4.78;;
22648;SDS011;11491;41.942;24.220;2022-07-23T08:02:24;10.70;;;5.32;;
22648;SDS011;11491;41.942;24.220;2022-07-23T08:04:51;8.77;;;5.28;;
22648;SDS011;11491;41.942;24.220;2022-07-23T08:07:18;9.15;;;4.47;;
22648;SDS011;11491;41.942;24.220;2022-07-23T08:09:46;6.70;;;4.78;;
22648;SDS011;11491;41.942;24.220;2022-07-23T08:12:14;12.38;;;5.25;;
22648;SDS011;11491;41.942;24.220;2022-07-23T08:14:41;10.55;;;5.28;;
22648;SDS011;11491;41.942;24.220;2022-07-23T08:17:09;12.90;;;4.88;;
22648;SDS011;11491;41.942;24.220;2022-07-23T08:19:36;14.07;;;4.88;;
22648;SDS011;11491;41.942;24.220;2022-07-23T08:22:03;11.13;;;6.00;;
22648;SDS011;11491;41.942;24.220;2022-07-23T08:24:30;11.98;;;6.40;;
22648;SDS011;11491;41.942;24.220;2022-07-23T08:26:57;11.65;;;5.03;;
22648;SDS011;11491;41.942;24.220;2022-07-23T08:29:25;9.75;;;5.07;;
22648;SDS011;11491;41.942;24.220;2022-07-23T08:31:52;9.15;;;5.32;;
22648;SDS011;11491;41.942;24.220;2022-07-23T08:34:19;12.35;;;5.47;;
22648;SDS011;11491;41.942;24.220;2022-07-23T08:36:46;10.32;;;5.35;;
22648;SDS011;11491;41.942;24.220;2022-07-23T08:39:13;15.07;;;5.75;;
22648;SDS011;11491;41.942;24.220;2022-07-23T08:41:40;10.07;;;5.13;;
22648;SDS011;11491;41.942;24.220;2022-07-23T08:44:07;9.40;;;5.40;;
22648;SDS011;11491;41.942;24.220;2022-07-23T08:46:36;11.60;;;5.32;;
22648;SDS011;11491;41.942;24.220;2022-07-23T08:49:04;13.23;;;5.13;;
22648;SDS011;11491;41.942;24.220;2022-07-23T08:51:31;13.70;;;5.03;;
22648;SDS011;11491;41.942;24.220;2022-07-23T08:53:59;14.05;;;5.30;;
22648;SDS011;11491;41.942;24.220;2022-07-23T08:56:26;12.40;;;5.38;;
22648;SDS011;11491;41.942;24.220;2022-07-23T08:58:53;10.55;;;5.15;;
22648;SDS011;11491;41.942;24.220;2022-07-23T09:01:20;11.10;;;5.10;;
22648;SDS011;11491;41.942;24.220;2022-07-23T09:03:49;13.68;;;4.82;;
22648;SDS011;11491;41.942;24.220;2022-07-23T09:06:16;10.50;;;4.78;;
22648;SDS011;11491;41.942;24.220;2022-07-23T09:08:43;14.40;;;4.63;;
22648;SDS011;11491;41.942;24.220;2022-07-23T09:11:12;11.82;;;4.88;;
22648;SDS011;11491;41.942;24.220;2022-07-23T09:13:42;9.27;;;5.20;;
22648;SDS011;11491;41.942;24.220;2022-07-23T09:16:14;14.20;;;4.72;;
22648;SDS011;11491;41.942;24.220;2022-07-23T09:18:42;11.15;;;4.72;;
22648;SDS011;11491;41.942;24.220;2022-07-23T09:21:27;13.13;;;4.82;;
22648;SDS011;11491;41.942;24.220;2022-07-23T09:23:55;10.15;;;5.20;;
22648;SDS011;11491;41.942;24.220;2022-07-23T09:26:31;13.05;;;4.50;;
22648;SDS011;11491;41.942;24.220;2022-07-23T09:29:01;13.25;;;5.15;;
22648;SDS011;11491;41.942;24.220;2022-07-23T09:31:31;14.95;;;4.80;;
22648;SDS011;11491;41.942;24.220;2022-07-23T09:34:06;14.73;;;4.78;;
22648;SDS011;11491;41.942;24.220;2022-07-23T09:36:39;10.90;;;4.53;;
22648;SDS011;11491;41.942;24.220;2022-07-23T09:39:06;10.43;;;5.18;;
22648;SDS011;11491;41.942;24.220;2022-07-23T09:41:35;9.40;;;4.30;;
22648;SDS011;11491;41.942;24.220;2022-07-23T09:44:07;13.32;;;5.15;;
22648;SDS011;11491;41.942;24.220;2022-07-23T09:46:35;11.57;;;4.78;;
22648;SDS011;11491;41.942;24.220;2022-07-23T09:49:09;12.65;;;4.70;;
22648;SDS011;11491;41.942;24.220;2022-07-23T09:51:46;10.65;;;5.10;;
22648;SDS011;11491;41.942;24.220;2022-07-23T09:54:24;14.77;;;5.00;;
22648;SDS011;11491;41.942;24.220;2022-07-23T09:56:55;8.63;;;4.72;;
22648;SDS011;11491;41.942;24.220;2022-07-23T09:59:24;10.18;;;4.82;;
22648;SDS011;11491;41.942;24.220;2022-07-23T10:01:53;14.90;;;4.90;;
22648;SDS011;11491;41.942;24.220;2022-07-23T10:04:22;11.93;;;5.07;;
22648;SDS011;11491;41.942;24.220;2022-07-23T10:06:55;14.35;;;5.13;;
22648;SDS011;11491;41.942;24.220;2022-07-23T10:09:25;12.13;;;4.70;;
22648;SDS011;11491;41.942;24.220;2022-07-23T10:11:56;12.15;;;4.60;;
22648;SDS011;11491;41.942;24.220;2022-07-23T10:14:31;12.32;;;5.97;;
22648;SDS011;11491;41.942;24.220;2022-07-23T10:17:00;26.55;;;5.75;;
22648;SDS011;11491;41.942;24.220;2022-07-23T10:19:27;10.38;;;4.78;;
22648;SDS011;11491;41.942;24.220;2022-07-23T10:21:57;8.95;;;4.78;;
22648;SDS011;11491;41.942;24.220;2022-07-23T10:24:28;16.33;;;5.18;;
22648;SDS011;11491;41.942;24.220;2022-07-23T10:27:09;8.80;;;5.32;;
22648;SDS011;11491;41.942;24.220;2022-07-23T10:29:47;14.90;;;5.30;;
22648;SDS011;11491;41.942;24.220;2022-07-23T10:32:21;12.20;;;4.85;;
22648;SDS011;11491;41.942;24.220;2022-07-23T10:34:58;12.43;;;5.13;;
22648;SDS011;11491;41.942;24.220;2022-07-23T10:37:45;11.98;;;5.10;;
22648;SDS011;11491;41.942;24.220;2022-07-23T10:40:16;12.40;;;4.80;;
22648;SDS011;11491;41.942;24.220;2022-07-23T10:42:44;10.32;;;5.13;;
22648;SDS011;11491;41.942;24.220;2022-07-23T10:45:28;11.32;;;4.45;;
22648;SDS011;11491;41.942;24.220;2022-07-23T10:47:56;16.48;;;5.10;;
22648;SDS011;11491;41.942;24.220;2022-07-23T10:50:39;19.63;;;5.37;;
22648;SDS011;11491;41.942;24.220;2022-07-23T10:53:14;12.57;;;5.00;;
22648;SDS011;11491;41.942;24.220;2022-07-23T10:55:44;12.32;;;4.68;;
22648;SDS011;11491;41.942;24.220;2022-07-23T10:58:17;9.88;;;4.75;;
22648;SDS011;11491;41.942;24.220;2022-07-23T11:00:48;14.20;;;4.72;;
22648;SDS011;11491;41.942;24.220;2022-07-23T11:03:28;9.45;;;5.18;;
22648;SDS011;11491;41.942;24.220;2022-07-23T11:06:01;7.80;;;4.18;;
22648;SDS011;11491;41.942;24.220;2022-07-23T11:08:30;14.00;;;5.07;;
22648;SDS011;11491;41.942;24.220;2022-07-23T11:11:10;11.25;;;5.03;;
22648;SDS011;11491;41.942;24.220;2022-07-23T11:13:45;16.67;;;5.45;;
22648;SDS011;11491;41.942;24.220;2022-07-23T11:16:15;12.73;;;4.57;;
22648;SDS011;11491;41.942;24.220;2022-07-23T11:21:44;14.65;;;5.35;;
22648;SDS011;11491;41.942;24.220;2022-07-23T11:24:24;11.55;;;4.95;;
22648;SDS011;11491;41.942;24.220;2022-07-23T11:26:58;13.68;;;4.93;;
22648;SDS011;11491;41.942;24.220;2022-07-23T11:29:42;18.02;;;6.70;;
22648;SDS011;11491;41.942;24.220;2022-07-23T11:32:18;15.05;;;5.30;;
22648;SDS011;11491;41.942;24.220;2022-07-23T11:34:57;12.27;;;5.45;;
22648;SDS011;11491;41.942;24.220;2022-07-23T11:37:29;16.17;;;5.00;;
22648;SDS011;11491;41.942;24.220;2022-07-23T11:40:00;11.68;;;4.88;;
22648;SDS011;11491;41.942;24.220;2022-07-23T11:42:29;10.55;;;4.60;;
22648;SDS011;11491;41.942;24.220;2022-07-23T11:44:56;12.90;;;5.07;;
22648;SDS011;11491;41.942;24.220;2022-07-23T11:47:23;12.75;;;4.72;;
22648;SDS011;11491;41.942;24.220;2022-07-23T11:49:52;15.40;;;4.70;;
22648;SDS011;11491;41.942;24.220;2022-07-23T11:52:19;16.48;;;5.47;;
22648;SDS011;11491;41.942;24.220;2022-07-23T11:54:47;10.88;;;4.82;;
22648;SDS011;11491;41.942;24.220;2022-07-23T11:57:17;14.30;;;5.43;;
22648;SDS011;11491;41.942;24.220;2022-07-23T11:59:45;12.45;;;5.25;;
22648;SDS011;11491;41.942;24.220;2022-07-23T12:02:15;19.25;;;5.00;;
22648;SDS011;11491;41.942;24.220;2022-07-23T12:04:43;12.13;;;4.70;;
22648;SDS011;11491;41.942;24.220;2022-07-23T12:10:09;15.75;;;5.55;;
22648;SDS011;11491;41.942;24.220;2022-07-23T12:12:40;16.02;;;4.85;;
22648;SDS011;11491;41.942;24.220;2022-07-23T12:15:08;13.75;;;5.20;;
22648;SDS011;11491;41.942;24.220;2022-07-23T12:17:36;16.85;;;5.20;;
22648;SDS011;11491;41.942;24.220;2022-07-23T12:20:05;14.90;;;5.57;;
22648;SDS011;11491;41.942;24.220;2022-07-23T12:22:35;12.20;;;4.55;;
22648;SDS011;11491;41.942;24.220;2022-07-23T12:25:04;14.13;;;5.05;;
22648;SDS011;11491;41.942;24.220;2022-07-23T12:27:33;12.43;;;4.85;;
22648;SDS011;11491;41.942;24.220;2022-07-23T12:32:51;16.27;;;5.13;;
22648;SDS011;11491;41.942;24.220;2022-07-23T12:35:21;11.75;;;4.93;;
22648;SDS011;11491;41.942;24.220;2022-07-23T12:37:50;12.88;;;4.40;;
22648;SDS011;11491;41.942;24.220;2022-07-23T12:40:26;10.95;;;4.00;;
22648;SDS011;11491;41.942;24.220;2022-07-23T12:42:56;15.05;;;4.80;;
22648;SDS011;11491;41.942;24.220;2022-07-23T12:45:26;11.75;;;4.97;;
22648;SDS011;11491;41.942;24.220;2022-07-23T12:47:58;16.77;;;5.32;;
22648;SDS011;11491;41.942;24.220;2022-07-23T12:50:35;12.82;;;5.35;;
22648;SDS011;11491;41.942;24.220;2022-07-23T12:53:04;16.20;;;5.35;;
22648;SDS011;11491;41.942;24.220;2022-07-23T12:55:33;17.70;;;4.53;;
22648;SDS011;11491;41.942;24.220;2022-07-23T12:58:04;14.23;;;5.25;;
22648;SDS011;11491;41.942;24.220;2022-07-23T13:00:34;17.15;;;4.78;;
22648;SDS011;11491;41.942;24.220;2022-07-23T13:03:26;14.43;;;5.05;;
22648;SDS011;11491;41.942;24.220;2022-07-23T13:05:54;14.65;;;4.88;;
22648;SDS011;11491;41.942;24.220;2022-07-23T13:08:22;16.98;;;4.75;;
22648;SDS011;11491;41.942;24.220;2022-07-23T13:10:49;16.67;;;5.00;;
22648;SDS011;11491;41.942;24.220;2022-07-23T13:13:17;13.40;;;4.70;;
22648;SDS011;11491;41.942;24.220;2022-07-23T13:15:47;16.45;;;4.95;;
22648;SDS011;11491;41.942;24.220;2022-07-23T13:18:14;15.40;;;4.85;;
22648;SDS011;11491;41.942;24.220;2022-07-23T13:20:42;17.80;;;5.15;;
22648;SDS011;11491;41.942;24.220;2022-07-23T13:23:09;14.35;;;5.40;;
22648;SDS011;11491;41.942;24.220;2022-07-23T13:25:36;16.90;;;4.85;;
22648;SDS011;11491;41.942;24.220;2022-07-23T13:28:03;20.73;;;5.30;;
22648;SDS011;11491;41.942;24.220;2022-07-23T13:30:30;14.18;;;5.03;;
22648;SDS011;11491;41.942;24.220;2022-07-23T13:32:58;17.73;;;5.07;;
22648;SDS011;11491;41.942;24.220;2022-07-23T13:35:25;26.30;;;5.30;;
22648;SDS011;11491;41.942;24.220;2022-07-23T13:37:55;17.85;;;5.30;;
22648;SDS011;11491;41.942;24.220;2022-07-23T13:40:22;24.17;;;5.18;;
22648;SDS011;11491;41.942;24.220;2022-07-23T13:42:49;19.42;;;5.25;;
22648;SDS011;11491;41.942;24.220;2022-07-23T13:45:16;13.60;;;4.82;;
22648;SDS011;11491;41.942;24.220;2022-07-23T13:47:43;14.38;;;5.05;;
22648;SDS011;11491;41.942;24.220;2022-07-23T13:50:11;10.65;;;4.57;;
22648;SDS011;11491;41.942;24.220;2022-07-23T13:52:40;11.73;;;4.88;;
22648;SDS011;11491;41.942;24.220;2022-07-23T13:55:07;14.20;;;4.95;;
22648;SDS011;11491;41.942;24.220;2022-07-23T13:57:34;15.52;;;4.93;;
22648;SDS011;11491;41.942;24.220;2022-07-23T14:00:01;17.17;;;5.20;;
22648;SDS011;11491;41.942;24.220;2022-07-23T14:02:29;17.10;;;4.95;;
22648;SDS011;11491;41.942;24.220;2022-07-23T14:04:56;16.25;;;5.55;;
22648;SDS011;11491;41.942;24.220;2022-07-23T14:07:25;18.85;;;4.88;;
22648;SDS011;11491;41.942;24.220;2022-07-23T14:09:52;13.02;;;4.70;;
22648;SDS011;11491;41.942;24.220;2022-07-23T14:12:19;18.27;;;5.10;;
22648;SDS011;11491;41.942;24.220;2022-07-23T14:14:45;13.07;;;4.90;;
22648;SDS011;11491;41.942;24.220;2022-07-23T14:17:12;16.50;;;5.50;;
22648;SDS011;11491;41.942;24.220;2022-07-23T14:19:39;12.82;;;4.53;;
22648;SDS011;11491;41.942;24.220;2022-07-23T14:22:06;14.88;;;5.00;;
22648;SDS011;11491;41.942;24.220;2022-07-23T14:24:34;15.43;;;5.13;;
22648;SDS011;11491;41.942;24.220;2022-07-23T14:27:01;15.13;;;5.10;;
22648;SDS011;11491;41.942;24.220;2022-07-23T14:29:29;13.57;;;5.55;;
22648;SDS011;11491;41.942;24.220;2022-07-23T14:31:57;25.42;;;5.63;;
22648;SDS011;11491;41.942;24.220;2022-07-23T14:34:24;14.45;;;5.00;;
22648;SDS011;11491;41.942;24.220;2022-07-23T14:36:51;13.50;;;5.00;;
22648;SDS011;11491;41.942;24.220;2022-07-23T14:39:18;12.98;;;5.15;;
22648;SDS011;11491;41.942;24.220;2022-07-23T14:41:46;11.95;;;5.40;;
22648;SDS011;11491;41.942;24.220;2022-07-23T14:44:13;14.73;;;5.78;;
22648;SDS011;11491;41.942;24.220;2022-07-23T14:46:40;15.00;;;5.43;;
22648;SDS011;11491;41.942;24.220;2022-07-23T14:49:07;16.38;;;6.10;;
22648;SDS011;11491;41.942;24.220;2022-07-23T14:51:34;14.40;;;5.47;;
22648;SDS011;11491;41.942;24.220;2022-07-23T14:54:01;16.45;;;6.13;;
22648;SDS011;11491;41.942;24.220;2022-07-23T14:56:28;13.88;;;5.28;;
22648;SDS011;11491;41.942;24.220;2022-07-23T14:58:56;15.45;;;5.95;;
22648;SDS011;11491;41.942;24.220;2022-07-23T15:01:23;17.98;;;6.03;;
22648;SDS011;11491;41.942;24.220;2022-07-23T15:03:50;21.52;;;6.15;;
22648;SDS011;11491;41.942;24.220;2022-07-23T15:06:17;14.07;;;5.40;;
22648;SDS011;11491;41.942;24.220;2022-07-23T15:08:44;16.83;;;5.60;;
22648;SDS011;11491;41.942;24.220;2022-07-23T15:11:11;18.60;;;6.13;;
22648;SDS011;11491;41.942;24.220;2022-07-23T15:13:38;15.77;;;7.03;;
22648;SDS011;11491;41.942;24.220;2022-07-23T15:16:07;15.10;;;6.45;;
22648;SDS011;11491;41.942;24.220;2022-07-23T15:18:34;18.83;;;6.03;;
22648;SDS011;11491;41.942;24.220;2022-07-23T15:21:01;14.30;;;6.00;;